Time;durP1;ratioP1;P1;durP2;ratioP2;P2;SDS_P1;SDS_P2;PMS_P1;PMS_P2;Temp;Humidity;BMP_temperature;BMP_pressure;BME280_temperature;BME280_humidity;BME280_pressure;Samples;Min_cycle;Max_cycle;Signal;HPM_P1;HPM_P2
2022/03/22 00:00:09;;;;;;;17.88;11.50;;;;;;;14.69;52.25;102216.88;5064518;28;20427;-61
2022/03/22 00:02:41;;;;;;;17.42;10.52;;;;;;;14.77;51.89;102221.72;5071835;28;21034;-59
2022/03/22 00:05:09;;;;;;;16.17;10.05;;;;;;;14.80;51.86;102220.31;5067550;28;20051;-61
2022/03/22 00:07:36;;;;;;;15.73;10.80;;;;;;;14.44;52.97;102220.09;5071920;28;20064;-61
2022/03/22 00:10:04;;;;;;;18.48;10.38;;;;;;;14.48;52.78;102226.69;5053447;28;20048;-62
2022/03/22 00:12:31;;;;;;;17.40;10.93;;;;;;;14.41;53.08;102223.47;5076049;28;20507;-59
2022/03/22 00:15:00;;;;;;;18.92;10.50;;;;;;;14.41;52.99;102224.31;5070557;28;20467;-61
2022/03/22 00:17:47;;;;;;;17.65;10.43;;;;;;;14.25;53.41;102222.88;5070577;28;20047;-60
2022/03/22 00:20:15;;;;;;;18.25;9.95;;;;;;;14.31;53.05;102226.41;5064680;28;20049;-59
2022/03/22 00:22:43;;;;;;;25.02;10.38;;;;;;;14.14;53.47;102224.16;5071758;28;20049;-58
2022/03/22 00:25:11;;;;;;;16.45;11.15;;;;;;;14.25;53.37;102225.66;5066575;28;20064;-57
2022/03/22 00:27:55;;;;;;;17.90;11.05;;;;;;;14.16;53.11;102232.97;5067936;28;20119;-55
2022/03/22 00:30:25;;;;;;;16.02;10.55;;;;;;;13.95;53.79;102233.56;5070282;28;20063;-58
2022/03/22 00:32:54;;;;;;;16.25;10.45;;;;;;;13.95;53.55;102233.56;5073601;28;20063;-58
2022/03/22 00:35:25;;;;;;;18.03;10.77;;;;;;;13.81;53.95;102239.03;5074577;28;20049;-57
2022/03/22 00:37:56;;;;;;;14.65;10.93;;;;;;;13.89;53.65;102237.56;5072861;28;20291;-59
2022/03/22 00:40:25;;;;;;;19.42;11.25;;;;;;;13.90;53.56;102234.47;5073212;28;20048;-58
2022/03/22 00:42:53;;;;;;;16.70;11.13;;;;;;;13.66;54.30;102238.41;5072957;28;20060;-61
2022/03/22 00:45:22;;;;;;;21.27;11.55;;;;;;;13.70;54.13;102240.31;5074360;28;20052;-58
2022/03/22 00:47:51;;;;;;;17.83;10.93;;;;;;;13.73;54.03;102236.13;5067086;28;20036;-61
2022/03/22 00:50:22;;;;;;;19.02;10.80;;;;;;;13.75;54.15;102245.78;5053268;28;20044;-61
2022/03/22 00:52:49;;;;;;;19.42;11.10;;;;;;;13.72;54.14;102240.81;5074276;28;20044;-60
2022/03/22 00:55:16;;;;;;;19.80;11.10;;;;;;;13.68;54.45;102238.94;5065555;28;20057;-61
2022/03/22 00:57:44;;;;;;;18.00;11.50;;;;;;;13.88;53.85;102247.00;5070091;28;20479;-59
2022/03/22 01:00:13;;;;;;;18.02;10.70;;;;;;;13.71;54.11;102241.94;5074823;28;20055;-61
2022/03/22 01:02:43;;;;;;;20.75;11.57;;;;;;;13.71;54.07;102236.41;5074672;28;20095;-58
2022/03/22 01:05:13;;;;;;;;;;;;;;;13.57;54.27;102236.31;5075279;28;20055;-59
2022/03/22 01:07:45;;;;;;;14.02;9.63;;;;;;;13.66;54.10;102244.78;5072283;28;19921;-61
2022/03/22 01:10:13;;;;;;;17.17;10.50;;;;;;;13.49;54.40;102238.94;5072675;28;20063;-61
2022/03/22 01:12:43;;;;;;;15.90;9.75;;;;;;;13.49;54.29;102239.72;5071668;28;20123;-61
2022/03/22 01:15:15;;;;;;;20.08;10.98;;;;;;;13.53;54.24;102232.50;5072272;28;20056;-62
2022/03/22 01:17:44;;;;;;;15.70;10.10;;;;;;;13.70;53.19;102229.25;5082464;28;20058;-59
2022/03/22 01:20:12;;;;;;;17.70;10.05;;;;;;;13.40;53.46;102235.16;5063938;28;20056;-60
2022/03/22 01:22:41;;;;;;;15.15;9.20;;;;;;;13.38;53.20;102238.22;5074099;28;20040;-60
2022/03/22 01:25:10;;;;;;;19.58;10.23;;;;;;;13.35;53.42;102230.50;5074345;28;20045;-60
2022/03/22 01:27:37;;;;;;;14.88;10.10;;;;;;;13.26;53.63;102229.53;5068311;28;20524;-61
2022/03/22 01:30:06;;;;;;;18.77;11.15;;;;;;;13.30;53.38;102238.06;5067045;28;20051;-59
2022/03/22 01:32:34;;;;;;;21.27;13.35;;;;;;;13.38;53.05;102229.94;5069496;28;20055;-61
2022/03/22 01:35:04;;;;;;;22.27;14.02;;;;;;;13.24;53.52;102231.75;5068442;28;20407;-59
2022/03/22 01:37:31;;;;;;;18.47;11.20;;;;;;;13.39;53.32;102234.34;5067484;28;20049;-59
2022/03/22 01:39:59;;;;;;;17.23;10.40;;;;;;;13.09;53.86;102231.91;5074341;28;20407;-61
2022/03/22 01:42:26;;;;;;;16.65;9.60;;;;;;;12.76;54.89;102226.44;5073555;28;20049;-58
2022/03/22 01:44:53;;;;;;;19.75;10.77;;;;;;;12.77;54.93;102220.63;5074080;28;20052;-59
2022/03/22 01:47:25;;;;;;;19.90;11.30;;;;;;;13.00;54.66;102228.13;5074084;28;20640;-59
2022/03/22 01:49:52;;;;;;;19.27;10.95;;;;;;;13.29;53.64;102223.38;5056898;28;20095;-60
2022/03/22 01:52:21;;;;;;;15.48;9.57;;;;;;;13.11;53.82;102218.63;5073966;28;20052;-61
2022/03/22 01:54:50;;;;;;;18.67;10.40;;;;;;;13.17;53.88;102220.22;5074006;28;20114;-60
2022/03/22 01:57:18;;;;;;;20.25;10.48;;;;;;;13.11;53.73;102215.03;5073327;28;20061;-58
2022/03/22 01:59:46;;;;;;;14.45;9.73;;;;;;;12.93;53.82;102212.97;5074291;28;20048;-58
2022/03/22 02:07:51;;;;;;;17.95;9.95;;;;;;;13.04;53.44;102212.59;5072211;28;20063;-60
2022/03/22 02:10:18;;;;;;;17.48;10.57;;;;;;;12.89;53.47;102217.44;5074031;28;20052;-61
2022/03/22 02:12:46;;;;;;;19.75;10.77;;;;;;;12.84;53.89;102215.56;5071978;28;20507;-61
2022/03/22 02:15:16;;;;;;;20.67;10.80;;;;;;;12.90;53.68;102219.91;5072556;28;20052;-60
2022/03/22 02:17:46;;;;;;;15.63;10.40;;;;;;;12.95;53.32;102219.06;5073817;28;20044;-60
2022/03/22 02:20:14;;;;;;;17.27;10.02;;;;;;;12.89;53.45;102215.50;5077601;28;20053;-60
2022/03/22 02:22:51;;;;;;;15.88;10.38;;;;;;;12.84;53.15;102214.72;5069932;28;20048;-61
2022/03/22 02:25:19;;;;;;;19.92;10.45;;;;;;;12.94;52.98;102221.00;5064731;28;20052;-59
2022/03/22 02:27:52;;;;;;;18.42;10.77;;;;;;;12.84;53.12;102218.34;5077262;28;20067;-61
2022/03/22 02:30:20;;;;;;;18.92;10.13;;;;;;;12.88;53.12;102222.16;5077234;28;20085;-61
2022/03/22 02:32:50;;;;;;;14.75;10.15;;;;;;;12.98;52.71;102224.81;5077037;28;20412;-60
2022/03/22 02:35:22;;;;;;;21.13;10.80;;;;;;;13.05;52.25;102230.03;5077289;28;20063;-62
2022/03/22 02:37:50;;;;;;;16.05;10.20;;;;;;;13.11;52.25;102231.63;5076758;28;20056;-62
2022/03/22 02:40:18;;;;;;;17.38;10.82;;;;;;;13.00;52.69;102222.59;5074381;28;20512;-57
2022/03/22 02:42:50;;;;;;;17.83;10.07;;;;;;;12.95;52.27;102227.34;5064386;28;20051;-57
2022/03/22 02:45:22;;;;;;;21.05;10.52;;;;;;;12.91;52.63;102224.34;5073822;28;20047;-62
2022/03/22 02:47:50;;;;;;;21.33;10.73;;;;;;;12.84;52.59;102228.56;5075063;28;20048;-59
2022/03/22 02:50:18;;;;;;;16.40;9.90;;;;;;;12.93;52.37;102222.13;5075509;28;20064;-58
2022/03/22 02:52:45;;;;;;;19.02;10.55;;;;;;;12.75;52.71;102222.00;5075325;28;20514;-61
2022/03/22 02:55:13;;;;;;;15.75;10.45;;;;;;;12.70;52.69;102227.59;5076634;28;20231;-60
2022/03/22 02:57:41;;;;;;;18.55;10.38;;;;;;;12.49;53.08;102229.72;5076595;28;20131;-58
2022/03/22 03:00:10;;;;;;;16.60;10.23;;;;;;;12.41;52.97;102227.59;5074268;28;20052;-60
2022/03/22 03:02:47;;;;;;;15.40;10.10;;;;;;;12.25;53.41;102234.34;5076605;28;20055;-59
2022/03/22 03:05:15;;;;;;;14.98;9.90;;;;;;;12.33;53.25;102231.78;5074536;28;20291;-58
2022/03/22 03:07:42;;;;;;;14.13;9.88;;;;;;;12.59;52.35;102237.13;5082077;28;20488;-61
2022/03/22 03:10:10;;;;;;;15.88;9.88;;;;;;;12.62;52.47;102236.53;5055281;28;20053;-59
2022/03/22 03:12:37;;;;;;;14.48;9.45;;;;;;;12.46;52.62;102238.59;5067326;28;20524;-61
2022/03/22 03:15:08;;;;;;;18.17;10.20;;;;;;;12.48;52.51;102239.94;5075801;28;20047;-60
2022/03/22 03:17:37;;;;;;;18.27;9.93;;;;;;;12.29;52.79;102246.47;5076421;28;20068;-59
2022/03/22 03:20:06;;;;;;;17.10;9.98;;;;;;;12.38;52.35;102248.31;5086730;28;20523;-60
2022/03/22 03:22:33;;;;;;;18.85;10.27;;;;;;;12.21;52.73;102247.06;5066333;28;20056;-59
2022/03/22 03:25:01;;;;;;;17.05;9.52;;;;;;;12.28;52.62;102239.28;5075027;28;20056;-61
2022/03/22 03:27:28;;;;;;;17.77;10.35;;;;;;;12.19;52.82;102241.84;5083149;28;20052;-60
2022/03/22 03:29:56;;;;;;;16.65;10.55;;;;;;;12.31;52.78;102241.47;5069539;28;20511;-58
2022/03/22 03:32:24;;;;;;;14.45;10.50;;;;;;;12.24;52.58;102246.47;5075488;28;20431;-61
2022/03/22 03:34:51;;;;;;;18.42;10.27;;;;;;;12.11;52.79;102250.75;5076141;28;20071;-61
2022/03/22 03:37:19;;;;;;;15.38;9.80;;;;;;;12.15;52.64;102246.28;5076179;28;20057;-61
2022/03/22 03:39:46;;;;;;;15.52;10.07;;;;;;;12.16;52.59;102236.91;5076390;28;20052;-59
2022/03/22 03:42:13;;;;;;;15.75;10.45;;;;;;;12.03;52.63;102237.53;5064144;28;20048;-60
2022/03/22 03:47:27;;;;;;;14.25;9.43;;;;;;;12.03;52.94;102248.56;5068515;28;20063;-59
2022/03/22 03:49:58;;;;;;;17.05;10.25;;;;;;;11.98;52.71;102240.31;5075976;28;20052;-60
2022/03/22 03:52:30;;;;;;;17.58;10.25;;;;;;;11.83;53.32;102245.09;5075918;28;20059;-61
2022/03/22 03:54:58;;;;;;;15.68;9.75;;;;;;;11.80;53.35;102254.78;5075778;28;20045;-61
2022/03/22 03:57:26;;;;;;;20.30;10.38;;;;;;;11.75;53.54;102257.56;5075290;28;20049;-59
2022/03/22 03:59:55;;;;;;;19.58;10.45;;;;;;;12.02;53.01;102246.09;5075624;28;20052;-58
2022/03/22 04:02:23;;;;;;;19.23;11.07;;;;;;;12.06;52.87;102249.94;5068434;28;20063;-59
2022/03/22 04:04:55;;;;;;;18.73;10.00;;;;;;;12.15;52.48;102256.53;5075186;28;20044;-60
2022/03/22 04:07:24;;;;;;;15.25;10.20;;;;;;;11.93;52.98;102264.38;5075609;28;20052;-60
2022/03/22 04:09:54;;;;;;;20.53;11.00;;;;;;;11.91;53.29;102267.41;5074999;28;20068;-60
2022/03/22 04:12:24;;;;;;;17.60;10.20;;;;;;;12.01;52.99;102258.25;5075167;28;20294;-59
2022/03/22 04:14:53;;;;;;;16.10;10.65;;;;;;;11.96;52.88;102266.59;5075496;28;20056;-57
2022/03/22 04:17:21;;;;;;;19.67;10.50;;;;;;;11.92;52.93;102266.31;5075260;28;20526;-60
2022/03/22 04:19:48;;;;;;;17.08;10.32;;;;;;;11.89;53.21;102272.41;5075279;28;20048;-60
2022/03/22 04:22:16;;;;;;;19.60;10.80;;;;;;;12.01;52.77;102266.56;5074613;28;20535;-61
2022/03/22 04:24:44;;;;;;;17.17;11.00;;;;;;;11.95;52.86;102274.03;5075140;28;20052;-61
2022/03/22 04:32:44;;;;;;;17.38;11.18;;;;;;;11.71;53.78;102270.31;5078664;28;20051;-60
2022/03/22 04:35:20;;;;;;;17.73;10.27;;;;;;;11.67;53.52;102265.59;5081201;28;20052;-59
2022/03/22 04:37:49;;;;;;;27.20;11.98;;;;;;;11.53;53.73;102270.06;5074297;28;20602;-61
2022/03/22 04:40:17;;;;;;;15.17;11.43;;;;;;;11.54;53.78;102266.19;5074250;28;20059;-59
2022/03/22 04:42:46;;;;;;;21.15;11.48;;;;;;;11.48;53.80;102273.66;5060861;28;20303;-57
2022/03/22 04:45:14;;;;;;;19.55;11.05;;;;;;;11.53;53.91;102275.56;5074878;28;20063;-59
2022/03/22 04:47:44;;;;;;;20.70;10.90;;;;;;;11.49;53.86;102280.81;5074551;28;20052;-62
2022/03/22 04:50:11;;;;;;;;;;;;;;;11.51;53.94;102272.25;5075288;28;20491;-60
2022/03/22 04:58:11;;;;;;;19.38;11.38;;;;;;;11.38;54.04;102288.31;5067289;28;20059;-59
2022/03/22 05:00:38;;;;;;;21.08;11.18;;;;;;;11.33;53.98;102298.56;5074810;28;20604;-59
2022/03/22 05:03:07;;;;;;;18.27;11.40;;;;;;;11.32;54.21;102294.13;5073402;28;20057;-59
2022/03/22 05:08:21;;;;;;;17.85;11.32;;;;;;;11.11;54.82;102309.91;5074670;28;20056;-59
2022/03/22 05:10:49;;;;;;;18.10;11.52;;;;;;;11.19;54.50;102311.28;5074377;28;20475;-57
2022/03/22 05:13:20;;;;;;;17.33;11.73;;;;;;;11.13;54.77;102301.34;5073209;28;20076;-59
2022/03/22 05:15:47;;;;;;;20.35;12.02;;;;;;;11.03;55.18;102302.22;5074280;28;20049;-60
2022/03/22 05:18:15;;;;;;;21.23;12.43;;;;;;;11.03;55.23;102296.69;5074485;28;20057;-62
2022/03/22 05:20:43;;;;;;;24.05;12.00;;;;;;;11.07;55.11;102300.53;5073469;28;20051;-59
2022/03/22 05:23:11;;;;;;;21.42;11.93;;;;;;;10.85;55.67;102297.25;5073278;28;20119;-59
2022/03/22 05:25:38;;;;;;;18.83;11.82;;;;;;;10.93;55.45;102304.94;5072259;28;20041;-59
2022/03/22 05:28:05;;;;;;;18.08;10.80;;;;;;;10.96;55.46;102306.34;5074061;28;20044;-61
2022/03/22 05:30:33;;;;;;;21.60;11.73;;;;;;;10.97;55.40;102311.56;5070025;28;20527;-61
2022/03/22 05:33:00;;;;;;;19.48;11.60;;;;;;;10.82;55.60;102314.34;5073173;28;20048;-60
2022/03/22 05:35:28;;;;;;;22.52;12.02;;;;;;;10.79;55.79;102314.88;5074441;28;20491;-61
2022/03/22 05:37:55;;;;;;;20.67;11.85;;;;;;;10.66;55.99;102320.97;5073108;28;20063;-59
2022/03/22 05:40:23;;;;;;;17.98;11.02;;;;;;;10.81;56.00;102323.72;5073221;28;20052;-59
2022/03/22 05:42:51;;;;;;;25.92;13.00;;;;;;;10.79;55.97;102320.41;5062435;28;20056;-60
2022/03/22 05:45:19;;;;;;;21.23;11.70;;;;;;;10.91;55.71;102333.91;5073111;28;20071;-58
2022/03/22 05:47:46;;;;;;;18.50;11.20;;;;;;;10.98;55.36;102332.50;5073643;28;20052;-59
2022/03/22 05:50:13;;;;;;;18.50;11.40;;;;;;;10.81;55.66;102329.22;5072229;28;20068;-61
2022/03/22 05:52:47;;;;;;;20.75;11.98;;;;;;;10.86;55.52;102348.50;5074567;28;20059;-60
2022/03/22 05:55:15;;;;;;;22.60;11.00;;;;;;;10.85;55.78;102338.59;5073080;28;20044;-61
2022/03/22 05:57:42;;;;;;;18.80;11.88;;;;;;;11.09;55.24;102353.47;5077792;28;20057;-61
2022/03/22 06:00:11;;;;;;;19.48;11.75;;;;;;;10.98;55.08;102339.97;5076912;28;20082;-61
2022/03/22 06:02:39;;;;;;;21.38;11.43;;;;;;;10.79;55.64;102342.44;5071509;28;20052;-60
2022/03/22 06:05:08;;;;;;;19.70;11.48;;;;;;;10.66;56.13;102342.16;5077038;28;20045;-63
2022/03/22 06:07:36;;;;;;;22.27;12.02;;;;;;;10.59;56.13;102352.63;5076139;28;20056;-61
2022/03/22 06:10:05;;;;;;;19.52;11.73;;;;;;;10.67;55.77;102344.66;5071990;28;20056;-61
2022/03/22 06:12:40;;;;;;;27.73;11.70;;;;;;;10.71;56.02;102353.19;5072371;28;20546;-59
2022/03/22 06:15:19;;;;;;;22.25;12.15;;;;;;;10.73;55.47;102351.00;5076583;28;20040;-61
2022/03/22 06:17:50;;;;;;;20.33;12.48;;;;;;;10.78;55.38;102362.84;5077392;28;20052;-59
2022/03/22 06:20:23;;;;;;;23.85;12.75;;;;;;;10.55;55.98;102362.56;5077407;28;20040;-58
2022/03/22 06:22:51;;;;;;;17.55;11.73;;;;;;;10.59;55.48;102363.66;5076629;28;20056;-58
2022/03/22 06:25:19;;;;;;;20.48;11.95;;;;;;;10.90;55.06;102370.84;5077351;28;20055;-61
2022/03/22 06:27:52;;;;;;;20.90;11.90;;;;;;;10.76;55.35;102367.81;5063829;28;20036;-61
2022/03/22 06:30:20;;;;;;;21.83;12.30;;;;;;;10.55;56.03;102374.41;5073242;28;20044;-61
2022/03/22 06:32:50;;;;;;;23.42;12.15;;;;;;;10.80;55.42;102370.84;5077170;28;20076;-60
2022/03/22 06:35:19;;;;;;;27.25;13.93;;;;;;;10.59;55.87;102375.50;5077361;28;20041;-60
2022/03/22 06:37:48;;;;;;;23.88;12.65;;;;;;;10.67;55.70;102374.97;5074170;28;20550;-60
2022/03/22 06:40:17;;;;;;;20.75;12.68;;;;;;;10.62;55.60;102379.63;5070231;28;20052;-60
2022/03/22 06:42:48;;;;;;;24.45;13.27;;;;;;;10.54;56.19;102389.28;5073244;28;20047;-61
2022/03/22 06:45:16;;;;;;;21.90;12.88;;;;;;;10.72;55.98;102379.66;5080423;28;20037;-60
2022/03/22 06:47:44;;;;;;;24.65;13.60;;;;;;;10.79;56.64;102380.22;5077462;28;20052;-58
2022/03/22 06:50:13;;;;;;;21.10;13.00;;;;;;;10.50;57.02;102387.31;5075935;28;20044;-61
2022/03/22 06:52:41;;;;;;;22.10;12.48;;;;;;;10.35;57.18;102393.66;5077112;28;20049;-61
2022/03/22 06:55:11;;;;;;;23.55;13.25;;;;;;;10.43;57.84;102392.28;5065813;28;20049;-61
2022/03/22 06:57:38;;;;;;;20.70;14.17;;;;;;;10.50;56.83;102399.19;5062083;28;20059;-58
2022/03/22 07:00:09;;;;;;;21.77;13.60;;;;;;;10.69;56.23;102385.69;5077270;28;20298;-61
2022/03/22 07:02:39;;;;;;;23.40;14.07;;;;;;;10.58;55.73;102389.56;5075894;28;20073;-61
2022/03/22 07:05:09;;;;;;;20.45;13.15;;;;;;;10.62;55.90;102396.16;5075405;28;20045;-60
2022/03/22 07:07:37;;;;;;;24.52;13.32;;;;;;;10.56;55.34;102392.59;5076672;28;20056;-62
2022/03/22 07:10:06;;;;;;;28.10;14.68;;;;;;;10.64;54.99;102396.72;5074026;28;20076;-59
2022/03/22 07:12:33;;;;;;;24.05;14.77;;;;;;;10.46;54.80;102398.06;5076563;28;20045;-60
2022/03/22 07:15:03;;;;;;;27.15;13.48;;;;;;;10.69;56.19;102394.81;5055348;28;20049;-62
2022/03/22 07:17:31;;;;;;;21.65;14.00;;;;;;;10.50;55.12;102388.16;5067642;28;20068;-59
2022/03/22 07:19:58;;;;;;;25.23;13.98;;;;;;;10.62;54.91;102391.50;5076130;28;20045;-58
2022/03/22 07:22:26;;;;;;;27.08;14.88;;;;;;;10.40;55.26;102395.56;5076268;28;20052;-60
2022/03/22 07:24:54;;;;;;;24.92;13.98;;;;;;;10.31;55.07;102395.28;5075323;28;20063;-56
2022/03/22 07:27:21;;;;;;;24.05;12.65;;;;;;;15.54;51.34;102383.81;5075989;28;20045;-55
2022/03/22 07:29:49;;;;;;;22.95;13.93;;;;;;;12.85;47.79;102396.16;5074083;28;20448;-61
2022/03/22 07:32:17;;;;;;;21.27;14.70;;;;;;;12.09;49.52;102401.28;5068973;28;20052;-57
2022/03/22 07:34:45;;;;;;;25.25;14.38;;;;;;;11.52;50.71;102398.09;5062874;28;20049;-65
2022/03/22 07:37:14;;;;;;;21.98;14.30;;;;;;;11.28;52.12;102401.44;5072520;28;20060;-57
2022/03/22 07:39:41;;;;;;;22.75;14.77;;;;;;;11.52;51.44;102412.75;5068297;28;20049;-61
2022/03/22 07:42:09;;;;;;;25.30;14.60;;;;;;;11.40;51.57;102406.69;5062914;28;20067;-58
2022/03/22 07:44:36;;;;;;;29.73;14.77;;;;;;;11.32;51.64;102404.47;5064721;28;20048;-60
2022/03/22 07:47:04;;;;;;;27.58;15.98;;;;;;;11.24;52.05;102402.28;5070504;28;20056;-60
2022/03/22 07:55:04;;;;;;;25.50;14.93;;;;;;;11.56;52.19;102402.78;5069746;28;20044;-55
2022/03/22 07:57:31;;;;;;;24.02;15.07;;;;;;;11.54;51.80;102417.97;5068198;28;20053;-59
2022/03/22 07:59:59;;;;;;;28.55;14.98;;;;;;;11.78;51.84;102413.53;5072051;28;20512;-56
2022/03/22 08:02:26;;;;;;;27.85;14.55;;;;;;;11.59;51.12;102418.81;5065942;28;20044;-54
2022/03/22 08:04:54;;;;;;;27.98;14.82;;;;;;;11.97;51.22;102411.81;5063290;28;20040;-53
2022/03/22 08:07:22;;;;;;;26.50;14.93;;;;;;;12.14;50.68;102415.06;5064220;28;20466;-62
2022/03/22 08:09:50;;;;;;;27.25;14.57;;;;;;;12.30;50.89;102414.72;5063061;28;20045;-55
2022/03/22 08:12:17;;;;;;;30.20;15.57;;;;;;;12.39;50.91;102418.56;5065196;28;20071;-55
2022/03/22 08:14:44;;;;;;;22.00;13.70;;;;;;;12.41;50.17;102412.75;5067388;28;20056;-58
2022/03/22 08:17:12;;;;;;;23.17;14.95;;;;;;;12.66;49.12;102418.09;5066596;28;20541;-55
2022/03/22 08:19:39;;;;;;;25.48;14.90;;;;;;;12.54;48.88;102411.25;5062115;28;20055;-58
2022/03/22 08:22:07;;;;;;;25.40;15.50;;;;;;;12.64;48.33;102420.31;5065137;28;20060;-56
2022/03/22 08:24:35;;;;;;;24.30;14.55;;;;;;;12.77;48.58;102414.16;5067477;28;20048;-54
2022/03/22 08:27:04;;;;;;;26.10;14.88;;;;;;;12.85;46.43;102415.50;5066196;28;20567;-56
2022/03/22 08:29:32;;;;;;;24.80;14.00;;;;;;;12.60;47.99;102421.19;5065530;28;20052;-59
2022/03/22 08:31:59;;;;;;;20.77;13.80;;;;;;;12.48;46.70;102416.81;5063744;28;21711;-63
2022/03/22 08:34:26;;;;;;;21.85;14.10;;;;;;;12.53;46.15;102427.03;5073136;28;20065;-56
2022/03/22 08:36:54;;;;;;;19.48;11.98;;;;;;;12.34;45.66;102424.09;5072485;28;20048;-58
2022/03/22 08:39:21;;;;;;;19.50;12.27;;;;;;;12.58;44.76;102424.25;5075319;28;20384;-56
2022/03/22 08:41:49;;;;;;;27.95;13.55;;;;;;;12.77;44.17;102419.69;5057009;28;20127;-54
2022/03/22 08:44:17;;;;;;;25.15;12.88;;;;;;;12.80;43.39;102418.28;5074347;28;20098;-62
2022/03/22 08:46:44;;;;;;;22.92;12.55;;;;;;;13.08;41.81;102426.69;5066230;28;20049;-56
2022/03/22 08:49:12;;;;;;;19.73;11.98;;;;;;;13.11;42.16;102417.81;5069985;28;20048;-55
2022/03/22 08:51:39;;;;;;;20.75;12.02;;;;;;;13.29;42.51;102414.34;5066305;28;20054;-58
2022/03/22 08:54:07;;;;;;;18.58;11.57;;;;;;;13.60;40.25;102412.09;5067463;28;20063;-55
2022/03/22 08:56:34;;;;;;;24.42;11.05;;;;;;;13.57;38.61;102405.22;5055059;28;20060;-54
2022/03/22 08:59:02;;;;;;;15.35;9.63;;;;;;;13.56;37.20;102408.28;5080954;28;20054;-56
2022/03/22 09:01:34;;;;;;;20.02;9.60;;;;;;;13.74;36.16;102407.50;5062637;28;20032;-54
2022/03/22 09:06:51;;;;;;;22.65;12.25;;;;;;;13.83;33.59;102402.16;5071528;28;20052;-57
2022/03/22 09:09:18;;;;;;;15.50;8.88;;;;;;;13.68;33.04;102405.09;5075031;28;20049;-54
2022/03/22 09:11:46;;;;;;;21.67;8.93;;;;;;;14.01;33.04;102402.22;5074865;28;20052;-55
2022/03/22 09:14:13;;;;;;;19.33;8.98;;;;;;;14.27;33.90;102394.44;5067002;28;20056;-58
2022/03/22 09:16:40;;;;;;;17.23;8.50;;;;;;;14.21;33.72;102401.97;5058763;28;20044;-53
2022/03/22 09:19:08;;;;;;;18.42;10.05;;;;;;;14.39;33.70;102403.16;5068161;28;20526;-57
2022/03/22 09:21:35;;;;;;;20.23;8.10;;;;;;;14.39;31.74;102406.75;5067846;28;20056;-55
2022/03/22 09:24:05;;;;;;;12.55;7.30;;;;;;;14.31;31.10;102403.81;5068953;28;20051;-55
2022/03/22 09:26:32;;;;;;;13.80;8.05;;;;;;;14.57;32.74;102405.94;5072520;28;20041;-58
2022/03/22 09:29:01;;;;;;;17.48;7.53;;;;;;;14.12;30.27;102409.28;5073273;28;20044;-58
2022/03/22 09:31:28;;;;;;;13.80;7.20;;;;;;;14.07;31.28;102414.09;5078123;28;20049;-59
2022/03/22 09:33:57;;;;;;;17.02;6.88;;;;;;;14.15;31.72;102411.47;5075844;28;20051;-60
2022/03/22 09:36:24;;;;;;;18.13;7.10;;;;;;;14.57;31.51;102408.69;5067705;28;20045;-61
2022/03/22 09:38:52;;;;;;;14.98;7.35;;;;;;;14.50;29.87;102410.22;5073288;28;20048;-60
2022/03/22 09:41:20;;;;;;;15.02;7.20;;;;;;;14.51;29.01;102409.06;5069071;28;20567;-57
2022/03/22 09:43:48;;;;;;;17.00;7.28;;;;;;;14.42;28.17;102403.38;5041132;28;20063;-60
2022/03/22 09:46:19;;;;;;;13.40;6.28;;;;;;;14.61;27.93;102406.16;5069873;28;20033;-57
2022/03/22 09:48:47;;;;;;;12.85;6.88;;;;;;;14.51;27.61;102415.47;5058097;28;20052;-58
2022/03/22 09:54:03;;;;;;;12.60;7.00;;;;;;;14.59;27.23;102408.44;5058423;28;20057;-58
2022/03/22 09:56:31;;;;;;;16.20;6.78;;;;;;;14.37;26.77;102397.91;5077658;28;20049;-60
2022/03/22 09:59:00;;;;;;;17.23;7.78;;;;;;;14.10;26.92;102394.09;5078143;28;20060;-59
2022/03/22 10:01:28;;;;;;;13.53;7.13;;;;;;;14.14;27.77;102397.94;5077515;28;20049;-57
2022/03/22 10:04:00;;;;;;;17.02;7.20;;;;;;;14.21;28.28;102398.38;5078156;28;20294;-54
2022/03/22 10:06:30;;;;;;;16.65;7.40;;;;;;;14.17;28.09;102400.09;5093617;28;20413;-58
2022/03/22 10:08:58;;;;;;;12.95;6.78;;;;;;;14.22;28.18;102400.84;5078212;28;20036;-57
2022/03/22 10:11:37;;;;;;;14.35;7.03;;;;;;;14.41;28.23;102404.50;5076270;28;20057;-57
2022/03/22 10:14:10;;;;;;;14.68;7.55;;;;;;;14.59;28.70;102406.44;5078079;28;20052;-59
2022/03/22 10:16:51;;;;;;;20.60;7.45;;;;;;;14.76;28.50;102391.25;5077781;28;20399;-60
2022/03/22 10:19:24;;;;;;;14.13;6.90;;;;;;;14.58;27.79;102388.19;5076841;28;20052;-57
2022/03/22 10:21:53;;;;;;;12.70;7.30;;;;;;;14.61;28.73;102384.78;5078099;28;20056;-56
2022/03/22 10:24:23;;;;;;;16.55;6.82;;;;;;;14.81;27.64;102386.44;5078109;28;20048;-58
2022/03/22 10:26:51;;;;;;;15.18;7.25;;;;;;;14.85;26.88;102389.44;5077647;28;20041;-59
2022/03/22 10:29:19;;;;;;;12.52;7.03;;;;;;;14.75;27.26;102386.84;5068169;28;20057;-58
2022/03/22 10:31:46;;;;;;;23.73;9.55;;;;;;;14.92;27.12;102390.72;5056613;28;20056;-58
2022/03/22 10:34:17;;;;;;;22.45;8.73;;;;;;;15.11;26.62;102390.69;5056686;28;20843;-59
2022/03/22 10:36:45;;;;;;;16.45;7.50;;;;;;;15.22;26.29;102384.63;5076546;28;20538;-58
2022/03/22 10:39:12;;;;;;;17.65;7.95;;;;;;;15.17;26.22;102381.94;5077495;28;20052;-57
2022/03/22 10:41:45;;;;;;;12.68;7.25;;;;;;;15.06;26.76;102379.66;5084990;28;20063;-56
2022/03/22 10:44:15;;;;;;;18.40;8.00;;;;;;;15.03;27.00;102375.53;5098190;28;20048;-58
2022/03/22 10:46:43;;;;;;;12.48;7.43;;;;;;;15.23;26.66;102375.19;5097737;28;20080;-60
2022/03/22 10:49:12;;;;;;;11.55;7.60;;;;;;;15.33;26.45;102374.19;5080071;28;20498;-58
2022/03/22 10:51:45;;;;;;;11.13;7.15;;;;;;;15.43;26.76;102379.59;5097896;28;20056;-57
2022/03/22 10:54:16;;;;;;;17.17;7.22;;;;;;;15.28;26.31;102377.06;5097587;28;20055;-59
2022/03/22 10:56:48;;;;;;;12.45;7.47;;;;;;;15.08;26.38;102374.63;5077284;28;20045;-59
2022/03/22 10:59:17;;;;;;;14.98;7.43;;;;;;;15.07;26.84;102372.97;5077692;28;20052;-60
2022/03/22 11:01:47;;;;;;;13.25;7.85;;;;;;;15.21;26.11;102363.56;5077475;28;20057;-59
2022/03/22 11:04:16;;;;;;;15.52;7.18;;;;;;;15.21;26.60;102359.97;5077499;28;20067;-56
2022/03/22 11:06:46;;;;;;;16.52;8.13;;;;;;;15.42;26.41;102356.56;5076065;28;20483;-57
2022/03/22 11:09:18;;;;;;;;;;;;;;;15.33;26.66;102358.34;5077987;28;20048;-58
2022/03/22 11:11:45;;;;;;;18.85;8.60;;;;;;;15.43;26.50;102357.38;5042730;28;20406;-60
2022/03/22 11:14:15;;;;;;;14.65;7.85;;;;;;;15.50;26.08;102358.63;5058785;28;20500;-59
2022/03/22 11:16:47;;;;;;;11.85;7.47;;;;;;;15.72;26.35;102355.97;5074990;28;20427;-59
2022/03/22 11:19:19;;;;;;;15.70;7.15;;;;;;;16.01;25.87;102346.47;5077156;28;20047;-60
2022/03/22 11:21:47;;;;;;;13.43;7.13;;;;;;;16.11;25.22;102351.84;5075772;28;20059;-59
2022/03/22 11:24:24;;;;;;;11.80;7.07;;;;;;;15.81;25.09;102352.47;5077273;28;20048;-60
2022/03/22 11:26:55;;;;;;;13.40;7.05;;;;;;;15.98;25.21;102345.16;5076827;28;20051;-57
2022/03/22 11:29:25;;;;;;;24.50;7.32;;;;;;;15.62;25.16;102345.03;5066921;28;20052;-60
2022/03/22 11:34:41;;;;;;;16.95;9.32;;;;;;;15.85;25.49;102345.16;5058076;28;19957;-58
2022/03/22 11:37:09;;;;;;;;;;;;;;;15.89;25.04;102344.22;5077313;28;20059;-60
2022/03/22 11:42:24;;;;;;;12.30;7.78;;;;;;;16.30;24.39;102324.72;5091991;28;20055;-57
2022/03/22 11:44:58;;;;;;;20.88;7.60;;;;;;;16.20;24.25;102327.69;5097085;28;20052;-60
2022/03/22 11:47:27;;;;;;;13.15;7.70;;;;;;;16.41;24.59;102324.16;5096473;28;20044;-60
2022/03/22 11:50:04;;;;;;;14.35;7.68;;;;;;;16.25;25.17;102325.63;5095737;28;20060;-60
2022/03/22 11:52:40;;;;;;;12.52;7.18;;;;;;;16.45;24.71;102324.34;5096002;28;20059;-59
2022/03/22 11:55:10;;;;;;;17.35;7.75;;;;;;;16.28;23.83;102315.84;5088247;28;20071;-58
2022/03/22 11:57:44;;;;;;;14.35;8.18;;;;;;;16.36;23.62;102318.72;5075677;28;20495;-61